createdAt,value
2023-02-23T00:00:49.354Z,-2.94
2023-02-23T00:03:15.845Z,-2.79
2023-02-23T00:05:42.293Z,-2.84
2023-02-23T00:08:09.328Z,-2.92
2023-02-23T00:10:35.870Z,-3.01
2023-02-23T00:13:02.343Z,-3.02
2023-02-23T00:15:29.904Z,-2.92
2023-02-23T00:18:00.063Z,-2.80
2023-02-23T00:20:29.126Z,-2.87
2023-02-23T00:22:57.292Z,-2.90
2023-02-23T00:25:25.048Z,-2.96
2023-02-23T00:27:52.562Z,-2.98
2023-02-23T00:30:19.967Z,-2.90
2023-02-23T00:32:46.830Z,-2.80
2023-02-23T00:35:19.532Z,-2.89
2023-02-23T00:37:49.011Z,-2.91
2023-02-23T00:40:17.049Z,-2.92
2023-02-23T00:42:45.224Z,-2.90
2023-02-23T00:45:12.641Z,-2.75
2023-02-23T00:47:40.643Z,-2.83
2023-02-23T00:50:07.872Z,-2.85
2023-02-23T00:52:34.383Z,-2.86
2023-02-23T00:55:00.868Z,-2.88
2023-02-23T00:57:27.324Z,-2.73
2023-02-23T00:59:53.772Z,-2.76
2023-02-23T01:02:20.424Z,-2.82
2023-02-23T01:04:46.893Z,-2.83
2023-02-23T01:07:13.439Z,-2.84
2023-02-23T01:09:40.048Z,-2.82
2023-02-23T01:12:07.531Z,-2.63
2023-02-23T01:14:34.211Z,-2.74
2023-02-23T01:17:00.657Z,-2.80
2023-02-23T01:19:27.717Z,-2.81
2023-02-23T01:21:54.166Z,-2.76
2023-02-23T01:24:21.344Z,-2.61
2023-02-23T01:26:47.849Z,-2.64
2023-02-23T01:29:15.777Z,-2.75
2023-02-23T01:31:44.484Z,-2.77
2023-02-23T01:34:12.223Z,-2.77
2023-02-23T01:36:39.760Z,-2.64
2023-02-23T01:39:07.831Z,-2.61
2023-02-23T01:41:35.519Z,-2.63
2023-02-23T01:44:06.520Z,-2.68
2023-02-23T01:46:34.372Z,-2.66
2023-02-23T01:49:01.427Z,-2.65
2023-02-23T01:51:31.205Z,-2.50
2023-02-23T01:54:00.250Z,-2.53
2023-02-23T01:56:29.602Z,-2.57
2023-02-23T01:58:57.840Z,-2.58
2023-02-23T02:01:24.414Z,-2.59
2023-02-23T02:03:50.871Z,-2.49
2023-02-23T02:06:18.394Z,-2.49
2023-02-23T02:08:47.438Z,-2.55
2023-02-23T02:11:30.740Z,-2.57
2023-02-23T02:14:05.359Z,-2.58
2023-02-23T02:16:45.888Z,-2.59
2023-02-23T02:19:18.715Z,-2.52
2023-02-23T02:21:52.344Z,-2.41
2023-02-23T02:24:34.516Z,-2.42
2023-02-23T02:27:05.201Z,-2.41
2023-02-23T02:29:50.163Z,-2.42
2023-02-23T02:32:25.779Z,-2.41
2023-02-23T02:34:52.289Z,-2.36
2023-02-23T02:37:33.278Z,-2.34
2023-02-23T02:40:23.349Z,-2.33
2023-02-23T02:43:09.355Z,-2.29
2023-02-23T02:45:38.844Z,-2.29
2023-02-23T02:48:20.635Z,-2.29
2023-02-23T02:50:55.483Z,-2.25
2023-02-23T02:53:44.798Z,-2.23
2023-02-23T02:56:13.309Z,-2.16
2023-02-23T02:58:42.404Z,-2.16
2023-02-23T03:01:30.848Z,-2.12
2023-02-23T03:04:17.386Z,-2.11
2023-02-23T03:07:04.806Z,-2.06
2023-02-23T03:09:49.893Z,-2.09
2023-02-23T03:12:47.260Z,-2.10
2023-02-23T03:15:38.287Z,-2.06
2023-02-23T03:18:49.449Z,-2.01
2023-02-23T03:21:38.588Z,-2.11
2023-02-23T03:24:27.865Z,-2.36
2023-02-23T03:27:17.500Z,-2.33
2023-02-23T03:30:19.677Z,-2.14
2023-02-23T03:33:07.037Z,-2.30
2023-02-23T03:36:01.260Z,-2.30
2023-02-23T03:38:51.141Z,-2.35
2023-02-23T03:41:37.058Z,-2.40
2023-02-23T03:44:24.542Z,-2.27
2023-02-23T03:47:11.377Z,-2.20
2023-02-23T03:49:58.124Z,-2.31
2023-02-23T03:52:47.225Z,-2.33
2023-02-23T03:55:36.720Z,-2.34
2023-02-23T03:58:24.025Z,-2.19
2023-02-23T04:01:10.977Z,-2.20
2023-02-23T04:03:58.421Z,-2.27
2023-02-23T04:06:47.598Z,-2.29
2023-02-23T04:09:32.991Z,-2.26
2023-02-23T04:12:36.837Z,-2.12
2023-02-23T04:15:12.186Z,-2.22
2023-02-23T04:17:39.676Z,-2.25
2023-02-23T04:20:07.168Z,-2.24
2023-02-23T04:22:35.576Z,-2.26
2023-02-23T04:25:02.188Z,-2.11
2023-02-23T04:27:28.713Z,-2.14
2023-02-23T04:29:55.248Z,-2.21
2023-02-23T04:32:21.869Z,-2.23
2023-02-23T04:34:48.746Z,-2.22
2023-02-23T04:37:15.367Z,-2.23
2023-02-23T04:39:43.001Z,-2.06
2023-02-23T04:42:10.238Z,-2.11
2023-02-23T04:44:36.689Z,-2.15
2023-02-23T04:47:03.192Z,-2.18
2023-02-23T04:49:29.729Z,-2.19
2023-02-23T04:51:56.228Z,-2.09
2023-02-23T04:54:22.675Z,-1.98
2023-02-23T04:56:49.251Z,-2.08
2023-02-23T04:59:15.735Z,-2.12
2023-02-23T05:01:42.314Z,-2.13
2023-02-23T05:04:08.831Z,-2.14
2023-02-23T05:06:35.395Z,-2.14
2023-02-23T05:09:03.293Z,-1.97
2023-02-23T05:11:30.155Z,-1.98
2023-02-23T05:13:56.612Z,-2.05
2023-02-23T05:16:23.685Z,-2.05
2023-02-23T05:18:50.382Z,-2.02
2023-02-23T05:21:17.257Z,-1.85
2023-02-23T05:23:43.906Z,-1.88
2023-02-23T05:26:11.318Z,-1.94
2023-02-23T05:28:38.932Z,-1.94
2023-02-23T05:31:06.286Z,-1.93
2023-02-23T05:33:33.812Z,-1.83
2023-02-23T05:36:01.087Z,-1.81
2023-02-23T05:38:27.607Z,-1.86
2023-02-23T05:40:54.069Z,-1.87
2023-02-23T05:43:20.573Z,-1.89
2023-02-23T05:45:47.053Z,-1.86
2023-02-23T05:48:14.071Z,-1.69
2023-02-23T05:50:40.759Z,-1.71
2023-02-23T05:53:07.256Z,-1.77
2023-02-23T05:55:33.705Z,-1.80
2023-02-23T05:58:00.277Z,-1.79
2023-02-23T06:00:26.741Z,-1.69
2023-02-23T06:02:54.064Z,-1.63
2023-02-23T06:05:20.626Z,-1.66
2023-02-23T06:07:47.504Z,-1.65
2023-02-23T06:10:14.448Z,-1.62
2023-02-23T06:12:41.129Z,-1.58
2023-02-23T06:15:07.871Z,-1.50
2023-02-23T06:17:35.416Z,-1.47
2023-02-23T06:20:05.111Z,-1.47
2023-02-23T06:22:32.076Z,-1.47
2023-02-23T06:24:58.746Z,-1.46
2023-02-23T06:27:25.896Z,-1.39
2023-02-23T06:29:52.340Z,-1.34
2023-02-23T06:32:20.341Z,-1.36
2023-02-23T06:34:46.864Z,-1.36
2023-02-23T06:37:13.364Z,-1.37
2023-02-23T06:39:39.883Z,-1.27
2023-02-23T06:42:06.408Z,-1.26
2023-02-23T06:44:35.444Z,-1.50
2023-02-23T06:47:03.651Z,-1.57
2023-02-23T06:49:30.248Z,-1.42
2023-02-23T06:51:56.976Z,-1.41
2023-02-23T06:54:23.663Z,-1.53
2023-02-23T06:56:50.588Z,-1.57
2023-02-23T06:59:17.103Z,-1.58
2023-02-23T07:01:44.803Z,-1.56
2023-02-23T07:04:11.765Z,-1.53
2023-02-23T07:06:38.339Z,-1.38
2023-02-23T07:09:05.795Z,-1.33
2023-02-23T07:11:32.441Z,-1.42
2023-02-23T07:13:59.324Z,-1.45
2023-02-23T07:16:27.202Z,-1.45
2023-02-23T07:18:54.192Z,-1.36
2023-02-23T07:21:20.853Z,-1.19
2023-02-23T07:23:50.084Z,-1.27
2023-02-23T07:26:18.469Z,-1.27
2023-02-23T07:28:45.186Z,-1.30
2023-02-23T07:31:11.762Z,-1.28
2023-02-23T07:33:38.997Z,-1.12
2023-02-23T07:36:05.956Z,-1.10
2023-02-23T07:38:32.733Z,-1.18
2023-02-23T07:40:59.239Z,-1.22
2023-02-23T07:43:25.724Z,-1.30
2023-02-23T07:45:52.286Z,-1.19
2023-02-23T07:48:19.355Z,-1.07
2023-02-23T07:50:46.142Z,-1.21
2023-02-23T07:53:13.283Z,-1.13
2023-02-23T07:55:40.526Z,-1.16
2023-02-23T07:58:07.081Z,-1.03
2023-02-23T08:00:34.334Z,-0.99
2023-02-23T08:03:01.481Z,-1.14
2023-02-23T08:05:28.535Z,-1.19
2023-02-23T08:07:56.006Z,-1.24
2023-02-23T08:10:22.743Z,-1.03
2023-02-23T08:12:49.307Z,-1.02
2023-02-23T08:15:16.000Z,-1.10
2023-02-23T08:17:43.476Z,-1.03
2023-02-23T08:20:10.443Z,-1.03
2023-02-23T08:22:48.997Z,-0.91
2023-02-23T08:25:16.669Z,-0.99
2023-02-23T08:27:43.132Z,-1.06
2023-02-23T08:30:10.027Z,-1.11
2023-02-23T08:32:36.538Z,-0.95
2023-02-23T08:35:03.107Z,-0.85
2023-02-23T08:37:30.283Z,-0.93
2023-02-23T08:39:57.638Z,-0.95
2023-02-23T08:42:24.082Z,-0.96
2023-02-23T08:44:50.593Z,-0.88
2023-02-23T08:47:21.869Z,-0.69
2023-02-23T08:49:48.493Z,-0.77
2023-02-23T08:52:15.006Z,-0.82
2023-02-23T08:54:41.451Z,-0.87
2023-02-23T08:57:07.989Z,-0.71
2023-02-23T08:59:34.439Z,-0.68
2023-02-23T09:02:00.952Z,-0.66
2023-02-23T09:04:27.439Z,-0.57
2023-02-23T09:06:54.457Z,-0.39
2023-02-23T09:09:20.980Z,-0.25
2023-02-23T09:11:47.446Z,-0.26
2023-02-23T09:14:13.964Z,-0.23
2023-02-23T09:16:40.774Z,-0.12
2023-02-23T09:19:07.321Z,0.01
2023-02-23T09:21:34.446Z,-0.04
2023-02-23T09:24:01.758Z,-0.09
2023-02-23T09:26:29.361Z,-0.11
2023-02-23T09:28:58.018Z,0.01
2023-02-23T09:31:24.806Z,0.00
2023-02-23T09:33:51.894Z,-0.04
2023-02-23T09:36:23.058Z,-0.05
2023-02-23T09:38:53.743Z,-0.01
2023-02-23T09:41:23.179Z,0.15
2023-02-23T09:44:11.975Z,0.15
2023-02-23T09:46:43.841Z,0.10
2023-02-23T09:49:13.855Z,0.09
2023-02-23T09:51:41.867Z,0.21
2023-02-23T09:54:12.640Z,0.38
2023-02-23T09:56:48.634Z,0.38
2023-02-23T09:59:19.967Z,0.39
2023-02-23T10:01:49.311Z,0.48
2023-02-23T10:04:38.564Z,0.62
2023-02-23T10:07:06.184Z,0.52
2023-02-23T10:09:55.746Z,0.40
2023-02-23T10:12:40.932Z,0.43
2023-02-23T10:15:30.389Z,0.59
2023-02-23T10:18:03.482Z,0.51
2023-02-23T10:20:37.224Z,0.10
2023-02-23T10:23:07.291Z,-0.02
2023-02-23T10:25:38.673Z,0.21
2023-02-23T10:28:05.297Z,0.31
2023-02-23T10:30:34.624Z,0.22
2023-02-23T10:33:22.640Z,0.17
2023-02-23T10:35:52.390Z,0.12
2023-02-23T10:38:20.503Z,0.38
2023-02-23T10:40:50.496Z,0.22
2023-02-23T10:43:18.374Z,0.16
2023-02-23T10:45:45.985Z,0.16
2023-02-23T10:48:21.572Z,0.30
2023-02-23T10:50:49.692Z,0.48
2023-02-23T10:53:18.650Z,0.31
2023-02-23T10:55:46.133Z,0.28
2023-02-23T10:58:18.934Z,0.30
2023-02-23T11:00:53.188Z,0.60
2023-02-23T11:03:43.227Z,0.52
2023-02-23T11:06:43.577Z,0.37
2023-02-23T11:09:43.338Z,0.43
2023-02-23T11:12:25.349Z,0.68
2023-02-23T11:14:56.069Z,0.50
2023-02-23T11:17:28.759Z,0.47
2023-02-23T11:20:00.732Z,0.52
2023-02-23T11:22:32.296Z,0.76
2023-02-23T11:25:01.270Z,0.63
2023-02-23T11:27:28.248Z,0.56
2023-02-23T11:29:57.536Z,0.65
2023-02-23T11:32:27.990Z,0.83
2023-02-23T11:35:21.373Z,0.64
2023-02-23T11:37:48.719Z,0.53
2023-02-23T11:40:35.474Z,0.66
2023-02-23T11:43:02.119Z,0.72
2023-02-23T11:45:33.695Z,0.56
2023-02-23T11:48:02.289Z,0.50
2023-02-23T11:50:29.972Z,0.77
2023-02-23T11:53:01.403Z,0.73
2023-02-23T11:55:29.156Z,0.60
2023-02-23T11:58:09.551Z,0.52
2023-02-23T12:00:36.065Z,0.69
2023-02-23T12:03:03.255Z,0.67
2023-02-23T12:05:31.109Z,0.56
2023-02-23T12:08:14.795Z,0.51
2023-02-23T12:10:47.617Z,0.70
2023-02-23T12:13:15.244Z,0.80
2023-02-23T12:15:59.799Z,0.68
2023-02-23T12:18:28.282Z,0.63
2023-02-23T12:20:57.890Z,0.88
2023-02-23T12:23:30.449Z,0.83
2023-02-23T12:26:13.916Z,0.71
2023-02-23T12:28:49.354Z,0.64
2023-02-23T12:31:31.728Z,0.87
2023-02-23T12:34:01.394Z,0.69
2023-02-23T12:36:38.496Z,0.58
2023-02-23T12:39:24.532Z,0.58
2023-02-23T12:42:00.081Z,0.78
2023-02-23T12:44:37.241Z,0.66
2023-02-23T12:47:20.152Z,0.58
2023-02-23T12:49:53.937Z,0.73
2023-02-23T12:52:23.212Z,0.98
2023-02-23T12:54:50.792Z,0.83
2023-02-23T12:57:38.680Z,0.80
2023-02-23T13:00:31.867Z,0.92
2023-02-23T13:03:30.512Z,1.21
2023-02-23T13:06:19.178Z,1.07
2023-02-23T13:08:45.606Z,1.13
2023-02-23T13:11:30.261Z,1.34
2023-02-23T13:13:59.957Z,1.20
2023-02-23T13:16:34.074Z,1.18
2023-02-23T13:19:12.860Z,1.42
2023-02-23T13:21:41.775Z,1.22
2023-02-23T13:24:20.217Z,1.16
2023-02-23T13:26:59.002Z,1.23
2023-02-23T13:29:39.878Z,1.48
2023-02-23T13:32:12.369Z,1.30
2023-02-23T13:34:48.125Z,1.20
2023-02-23T13:37:17.166Z,1.16
2023-02-23T13:39:49.475Z,1.42
2023-02-23T13:42:22.204Z,1.34
2023-02-23T13:44:49.323Z,1.21
2023-02-23T13:47:21.822Z,1.20
2023-02-23T13:49:56.709Z,1.46
2023-02-23T13:52:32.720Z,1.35
2023-02-23T13:55:05.226Z,1.23
2023-02-23T13:57:32.101Z,1.15
2023-02-23T13:59:59.322Z,1.24
2023-02-23T14:02:28.952Z,1.36
2023-02-23T14:05:17.475Z,1.18
2023-02-23T14:07:45.589Z,1.12
2023-02-23T14:10:23.107Z,1.17
2023-02-23T14:13:09.304Z,1.38
2023-02-23T14:15:35.734Z,1.23
2023-02-23T14:18:03.348Z,1.19
2023-02-23T14:20:38.800Z,1.17
2023-02-23T14:23:14.932Z,1.37
2023-02-23T14:25:46.700Z,1.38
2023-02-23T14:28:34.800Z,1.28
2023-02-23T14:31:13.269Z,1.21
2023-02-23T14:33:40.999Z,1.38
2023-02-23T14:36:27.472Z,1.43
2023-02-23T14:38:56.831Z,1.27
2023-02-23T14:41:25.245Z,1.12
2023-02-23T14:43:55.325Z,1.13
2023-02-23T14:46:23.556Z,1.26
2023-02-23T14:49:00.477Z,1.14
2023-02-23T14:51:43.374Z,1.10
2023-02-23T14:54:11.451Z,1.14
2023-02-23T14:56:48.126Z,1.36
2023-02-23T14:59:21.033Z,1.25
2023-02-23T15:01:47.844Z,1.08
2023-02-23T15:04:17.233Z,1.06
2023-02-23T15:06:47.039Z,1.08
2023-02-23T15:09:18.598Z,0.91
2023-02-23T15:11:49.972Z,0.55
2023-02-23T15:14:27.454Z,0.22
2023-02-23T15:16:57.391Z,0.26
2023-02-23T15:19:25.879Z,0.39
2023-02-23T15:21:53.801Z,0.00
2023-02-23T15:24:27.514Z,-0.13
2023-02-23T15:26:57.493Z,-0.10
2023-02-23T15:29:26.694Z,-0.18
2023-02-23T15:31:55.391Z,-0.35
2023-02-23T15:34:24.554Z,-0.39
2023-02-23T15:36:53.823Z,-0.19
2023-02-23T15:39:24.203Z,-0.31
2023-02-23T15:41:50.782Z,-0.44
2023-02-23T15:44:22.839Z,-0.47
2023-02-23T15:47:09.657Z,-0.28
2023-02-23T15:49:38.281Z,-0.44
2023-02-23T15:52:09.155Z,-0.64
2023-02-23T15:54:54.091Z,-0.70
2023-02-23T15:57:22.862Z,-0.62
2023-02-23T15:59:51.298Z,-0.91
2023-02-23T16:02:19.610Z,-1.19
2023-02-23T16:04:49.930Z,-1.42
2023-02-23T16:07:24.265Z,-1.26
2023-02-23T16:10:05.982Z,-1.36
2023-02-23T16:12:36.124Z,-1.51
2023-02-23T16:15:14.622Z,-1.70
2023-02-23T16:17:45.610Z,-1.54
2023-02-23T16:20:12.277Z,-1.58
2023-02-23T16:22:41.917Z,-1.78
2023-02-23T16:25:13.537Z,-1.90
2023-02-23T16:27:40.393Z,-2.02
2023-02-23T16:30:17.330Z,-1.87
2023-02-23T16:32:44.191Z,-2.22
2023-02-23T16:35:20.410Z,-2.37
2023-02-23T16:37:52.045Z,-2.49
2023-02-23T16:40:18.689Z,-2.44
2023-02-23T16:42:46.502Z,-2.35
2023-02-23T16:45:14.969Z,-2.39
2023-02-23T16:47:44.712Z,-2.31
2023-02-23T16:50:21.217Z,-2.41
2023-02-23T16:52:51.802Z,-2.32
2023-02-23T16:55:19.314Z,-2.46
2023-02-23T16:57:49.510Z,-2.70
2023-02-23T17:00:21.944Z,-2.82
2023-02-23T17:02:48.737Z,-2.76
2023-02-23T17:05:18.884Z,-2.58
2023-02-23T17:07:45.588Z,-2.60
2023-02-23T17:10:23.363Z,-2.69
2023-02-23T17:12:49.849Z,-2.64
2023-02-23T17:15:17.960Z,-2.69
2023-02-23T17:17:44.619Z,-2.67
2023-02-23T17:20:17.525Z,-2.75
2023-02-23T17:22:44.234Z,-2.86
2023-02-23T17:25:12.918Z,-2.87
2023-02-23T17:27:40.235Z,-2.81
2023-02-23T17:30:07.154Z,-2.81
2023-02-23T17:32:35.151Z,-2.86
2023-02-23T17:35:01.967Z,-2.97
2023-02-23T17:37:28.479Z,-3.00
2023-02-23T17:39:54.965Z,-3.02
2023-02-23T17:42:22.808Z,-3.06
2023-02-23T17:44:49.368Z,-3.11
2023-02-23T17:47:16.539Z,-3.15
2023-02-23T17:49:42.988Z,-3.11
2023-02-23T17:52:09.442Z,-3.16
2023-02-23T17:54:35.941Z,-3.11
2023-02-23T17:57:02.526Z,-3.06
2023-02-23T17:59:30.076Z,-3.38
2023-02-23T18:01:56.585Z,-3.59
2023-02-23T18:04:23.218Z,-3.85
2023-02-23T18:06:49.728Z,-3.84
2023-02-23T18:09:16.236Z,-3.75
2023-02-23T18:11:42.761Z,-4.29
2023-02-23T18:14:13.777Z,-4.29
2023-02-23T18:16:40.897Z,-4.38
2023-02-23T18:19:07.391Z,-4.55
2023-02-23T18:21:35.968Z,-4.37
2023-02-23T18:24:03.629Z,-4.49
2023-02-23T18:26:30.188Z,-4.61
2023-02-23T18:28:58.134Z,-4.76
2023-02-23T18:31:28.281Z,-4.84
2023-02-23T18:33:55.096Z,-4.94
2023-02-23T18:36:21.657Z,-4.80
2023-02-23T18:38:48.346Z,-4.73
2023-02-23T18:41:14.814Z,-4.94
2023-02-23T18:43:42.479Z,-4.83
2023-02-23T18:46:09.796Z,-4.65
2023-02-23T18:48:38.087Z,-4.68
2023-02-23T18:51:12.290Z,-4.78
2023-02-23T18:53:39.094Z,-4.85
2023-02-23T18:56:06.462Z,-5.20
2023-02-23T18:58:33.506Z,-5.34
2023-02-23T19:01:00.095Z,-5.51
2023-02-23T19:03:27.734Z,-5.38
2023-02-23T19:05:55.659Z,-5.15
2023-02-23T19:08:23.769Z,-5.21
2023-02-23T19:10:52.050Z,-5.36
2023-02-23T19:13:22.099Z,-5.23
2023-02-23T19:15:49.822Z,-5.30
2023-02-23T19:18:16.487Z,-5.44
2023-02-23T19:20:42.956Z,-5.44
2023-02-23T19:23:12.179Z,-5.13
2023-02-23T19:25:41.108Z,-4.98
2023-02-23T19:28:09.382Z,-5.16
2023-02-23T19:30:35.900Z,-5.46
2023-02-23T19:33:03.485Z,-5.50
2023-02-23T19:35:30.122Z,-5.54
2023-02-23T19:37:59.452Z,-5.31
2023-02-23T19:40:29.215Z,-5.15
2023-02-23T19:42:55.803Z,-5.33
2023-02-23T19:45:22.499Z,-5.45
2023-02-23T19:47:51.044Z,-5.79
2023-02-23T19:50:18.971Z,-5.75
2023-02-23T19:52:47.565Z,-5.53
2023-02-23T19:55:14.699Z,-5.39
2023-02-23T19:57:41.527Z,-5.56
2023-02-23T20:00:12.221Z,-5.52
2023-02-23T20:02:44.973Z,-5.57
2023-02-23T20:05:13.481Z,-6.13
2023-02-23T20:07:40.112Z,-6.24
2023-02-23T20:10:10.183Z,-5.97
2023-02-23T20:12:37.979Z,-5.59
2023-02-23T20:15:04.625Z,-5.61
2023-02-23T20:17:32.496Z,-6.20
2023-02-23T20:20:00.145Z,-6.28
2023-02-23T20:22:27.183Z,-6.11
2023-02-23T20:24:55.093Z,-6.12
2023-02-23T20:27:22.665Z,-5.78
2023-02-23T20:29:50.821Z,-5.80
2023-02-23T20:32:17.572Z,-5.79
2023-02-23T20:34:45.909Z,-5.66
2023-02-23T20:37:12.526Z,-5.80
2023-02-23T20:39:40.390Z,-6.28
2023-02-23T20:42:06.834Z,-6.43
2023-02-23T20:44:33.430Z,-6.07
2023-02-23T20:47:01.018Z,-5.93
2023-02-23T20:49:27.645Z,-5.68
2023-02-23T20:51:54.416Z,-5.56
2023-02-23T20:54:22.181Z,-5.98
2023-02-23T20:56:58.828Z,-6.32
2023-02-23T20:59:30.532Z,-6.45
2023-02-23T21:01:56.970Z,-6.40
2023-02-23T21:04:23.464Z,-6.20
2023-02-23T21:06:49.966Z,-6.45
2023-02-23T21:09:19.155Z,-6.80
2023-02-23T21:11:48.045Z,-6.82
2023-02-23T21:14:14.879Z,-6.68
2023-02-23T21:16:46.466Z,-6.46
2023-02-23T21:19:13.973Z,-5.86
2023-02-23T21:21:43.468Z,-5.54
2023-02-23T21:24:12.432Z,-5.55
2023-02-23T21:26:42.543Z,-5.49
2023-02-23T21:29:11.819Z,-5.75
2023-02-23T21:31:39.645Z,-5.93
2023-02-23T21:34:06.545Z,-5.98
2023-02-23T21:36:33.720Z,-5.80
2023-02-23T21:39:01.469Z,-5.73
2023-02-23T21:41:33.952Z,-5.76
2023-02-23T21:44:01.447Z,-5.67
2023-02-23T21:46:28.033Z,-5.89
2023-02-23T21:48:54.529Z,-5.99
2023-02-23T21:51:21.326Z,-5.85
2023-02-23T21:53:48.137Z,-5.66
2023-02-23T21:56:22.502Z,-5.45
2023-02-23T21:58:53.237Z,-5.77
2023-02-23T22:01:22.063Z,-6.11
2023-02-23T22:03:48.897Z,-6.06
2023-02-23T22:06:16.571Z,-5.85
2023-02-23T22:08:43.280Z,-5.84
2023-02-23T22:11:19.227Z,-6.09
2023-02-23T22:13:50.141Z,-5.98
2023-02-23T22:16:19.119Z,-6.27
2023-02-23T22:18:46.625Z,-6.49
2023-02-23T22:21:13.936Z,-6.38
2023-02-23T22:23:44.887Z,-6.43
2023-02-23T22:26:12.515Z,-6.22
2023-02-23T22:28:39.059Z,-6.31
2023-02-23T22:31:07.396Z,-6.44
2023-02-23T22:33:36.092Z,-6.22
2023-02-23T22:36:03.907Z,-5.78
2023-02-23T22:38:32.132Z,-5.43
2023-02-23T22:40:59.537Z,-5.23
2023-02-23T22:43:27.352Z,-5.16
2023-02-23T22:45:54.771Z,-5.46
2023-02-23T22:48:23.642Z,-5.55
2023-02-23T22:50:50.422Z,-5.57
2023-02-23T22:53:18.672Z,-5.44
2023-02-23T22:55:48.979Z,-5.46
2023-02-23T22:58:15.780Z,-5.66
2023-02-23T23:01:02.103Z,-5.59
2023-02-23T23:03:29.507Z,-5.54
2023-02-23T23:05:56.934Z,-5.47
2023-02-23T23:08:24.002Z,-5.34
2023-02-23T23:10:50.756Z,-5.25
2023-02-23T23:13:17.732Z,-5.04
2023-02-23T23:15:44.273Z,-4.94
2023-02-23T23:18:14.387Z,-4.88
2023-02-23T23:20:43.997Z,-4.81
2023-02-23T23:23:10.490Z,-4.89
2023-02-23T23:25:41.788Z,-5.30
2023-02-23T23:28:10.624Z,-5.67
2023-02-23T23:30:37.109Z,-5.95
2023-02-23T23:33:04.835Z,-6.06
2023-02-23T23:35:34.343Z,-6.13
2023-02-23T23:38:03.098Z,-6.23
2023-02-23T23:40:30.086Z,-5.93
2023-02-23T23:42:56.550Z,-6.04
2023-02-23T23:45:26.018Z,-6.51
2023-02-23T23:47:52.575Z,-6.12
2023-02-23T23:50:19.049Z,-5.72
2023-02-23T23:52:45.690Z,-5.57
2023-02-23T23:55:16.101Z,-5.53
2023-02-23T23:57:42.869Z,-5.58
